| time (UTC) | temp F | wind direction | speed knots | gust knots | rain 1hr in | rain 24hr in | rain mn in | humidity % | barometer mb |
| 20260507054502 | 33 | 142 | 0.0 | 0.0 | 0.00 | 0.00 | 0.00 | 79 | 1016.0 |
| 20260507054003 | 33 | 142 | 0.9 | 0.9 | 0.00 | 0.00 | 0.00 | 79 | 1016.0 |
| 20260507053503 | 33 | 159 | 0.9 | 6.1 | 0.00 | 0.00 | 0.00 | 79 | 1016.0 |
| 20260507053003 | 33 | 176 | 0.9 | 5.2 | 0.00 | 0.00 | 0.00 | 79 | 1016.0 |
| 20260507052503 | 34 | 180 | 0.9 | 3.5 | 0.00 | 0.00 | 0.00 | 79 | 1016.0 |
| 20260507052003 | 34 | 172 | 3.5 | 7.0 | 0.00 | 0.00 | 0.00 | 79 | 1015.9 |
| 20260507051503 | 34 | 162 | 0.9 | 4.3 | 0.00 | 0.00 | 0.00 | 79 | 1015.9 |
| 20260507051003 | 34 | 141 | 0.9 | 3.5 | 0.00 | 0.00 | 0.00 | 79 | 1015.9 |
| 20260507050002 | 34 | 146 | 0.9 | 5.2 | 0.00 | 0.00 | 0.00 | 79 | 1015.9 |
| 20260507045003 | 35 | 219 | 2.6 | 10.4 | 0.00 | 0.00 | 0.00 | 77 | 1015.9 |
| 20260507044503 | 35 | 206 | 3.5 | 10.4 | 0.00 | 0.00 | 0.00 | 75 | 1015.8 |
| 20260507044002 | 35 | 202 | 1.7 | 6.1 | 0.00 | 0.00 | 0.00 | 74 | 1015.8 |
| 20260507043503 | 35 | 225 | 3.5 | 7.8 | 0.00 | 0.00 | 0.00 | 73 | 1015.8 |
| 20260507043003 | 35 | 164 | 0.9 | 3.5 | 0.00 | 0.00 | 0.00 | 73 | 1015.7 |
| 20260507042503 | 35 | 131 | 0.9 | 5.2 | 0.00 | 0.00 | 0.00 | 73 | 1015.7 |
| 20260507042002 | 35 | 119 | 0.9 | 5.2 | 0.00 | 0.00 | 0.00 | 73 | 1015.6 |
| 20260507041503 | 35 | 158 | 0.9 | 2.6 | 0.00 | 0.00 | 0.00 | 73 | 1015.6 |
| 20260507041002 | 35 | 162 | 0.0 | 0.0 | 0.00 | 0.00 | 0.00 | 73 | 1015.6 |
| 20260507040502 | 35 | 162 | 0.0 | 0.0 | 0.00 | 0.00 | 0.00 | 73 | 1015.6 |
| 20260507040004 | 35 | 162 | 0.9 | 1.7 | 0.00 | 0.00 | 0.00 | 73 | 1015.6 |
| 20260507035502 | 36 | 152 | 0.9 | 3.5 | 0.00 | 0.00 | 0.00 | 73 | 1015.6 |
| 20260507035002 | 36 | 159 | 1.7 | 7.0 | 0.00 | 0.00 | 0.00 | 73 | 1015.6 |
| 20260507034503 | 36 | 182 | 1.7 | 5.2 | 0.00 | 0.00 | 0.00 | 73 | 1015.5 |
| 20260507034003 | 36 | 187 | 2.6 | 7.8 | 0.00 | 0.00 | 0.00 | 72 | 1015.5 |
| 20260507033002 | 36 | 101 | 0.9 | 3.5 | 0.00 | 0.00 | 0.00 | 72 | 1015.3 |
| 20260507032503 | 36 | 86 | 0.0 | 0.9 | 0.00 | 0.00 | 0.00 | 72 | 1015.3 |
| 20260507032003 | 36 | 101 | 2.6 | 8.7 | 0.00 | 0.00 | 0.00 | 72 | 1015.2 |
| 20260507031502 | 36 | 223 | 0.9 | 7.0 | 0.00 | 0.00 | 0.00 | 72 | 1015.3 |
| 20260507031003 | 36 | 194 | 2.6 | 7.8 | 0.00 | 0.00 | 0.00 | 72 | 1015.3 |
| 20260507030503 | 36 | 177 | 4.3 | 11.3 | 0.00 | 0.00 | 0.00 | 71 | 1015.2 |
| 20260507030003 | 36 | 175 | 3.5 | 7.8 | 0.00 | 0.00 | 0.00 | 71 | 1015.2 |
| 20260507025503 | 37 | 180 | 2.6 | 7.8 | 0.00 | 0.00 | 0.00 | 70 | 1015.1 |
| 20260507025002 | 37 | 165 | 1.7 | 7.8 | 0.00 | 0.00 | 0.00 | 70 | 1015.2 |
| 20260507024002 | 37 | 153 | 0.9 | 4.3 | 0.00 | 0.00 | 0.00 | 70 | 1015.1 |
| 20260507023503 | 37 | 160 | 1.7 | 4.3 | 0.00 | 0.00 | 0.00 | 70 | 1015.0 |
| 20260507023003 | 37 | 173 | 0.9 | 2.6 | 0.00 | 0.00 | 0.00 | 69 | 1015.0 |
| 20260507022502 | 37 | 89 | 1.7 | 4.3 | 0.00 | 0.00 | 0.00 | 69 | 1015.0 |
| 20260507022003 | 37 | 175 | 3.5 | 8.7 | 0.00 | 0.00 | 0.00 | 69 | 1015.0 |
| 20260507021503 | 38 | 179 | 1.7 | 7.0 | 0.00 | 0.00 | 0.00 | 69 | 1014.9 |
| 20260507021002 | 38 | 192 | 1.7 | 7.8 | 0.00 | 0.00 | 0.00 | 69 | 1014.9 |
| 20260507020502 | 38 | 214 | 2.6 | 9.6 | 0.00 | 0.00 | 0.00 | 69 | 1014.9 |
| 20260507020002 | 38 | 196 | 2.6 | 7.8 | 0.00 | 0.00 | 0.00 | 68 | 1014.9 |
| 20260507015502 | 38 | 193 | 2.6 | 8.7 | 0.00 | 0.00 | 0.00 | 68 | 1014.8 |
| 20260507015002 | 38 | 194 | 4.3 | 13.0 | 0.00 | 0.00 | 0.00 | 68 | 1014.8 |
| 20260507014503 | 39 | 180 | 3.5 | 8.7 | 0.00 | 0.00 | 0.00 | 67 | 1014.8 |
| 20260507013502 | 39 | 205 | 1.7 | 6.1 | 0.00 | 0.00 | 0.00 | 67 | 1014.7 |
| 20260507013002 | 39 | 203 | 3.5 | 8.7 | 0.00 | 0.00 | 0.00 | 67 | 1014.8 |
| 20260507012503 | 39 | 214 | 3.5 | 10.4 | 0.00 | 0.00 | 0.00 | 68 | 1014.8 |
| 20260507011003 | 39 | 198 | 2.6 | 5.2 | 0.00 | 0.00 | 0.00 | 68 | 1014.7 |
| 20260507010502 | 39 | 201 | 2.6 | 8.7 | 0.00 | 0.00 | 0.00 | 68 | 1014.7 |
| 20260507010003 | 39 | 198 | 2.6 | 7.0 | 0.00 | 0.00 | 0.00 | 68 | 1014.7 |
| 20260507005503 | 39 | 201 | 1.7 | 5.2 | 0.00 | 0.00 | 0.00 | 68 | 1014.6 |
| 20260507005003 | 39 | 204 | 1.7 | 7.8 | 0.00 | 0.00 | 0.00 | 68 | 1014.6 |
| 20260507004504 | 39 | 167 | 2.6 | 7.0 | 0.00 | 0.00 | 0.00 | 68 | 1014.6 |
| 20260507004002 | 39 | 211 | 2.6 | 7.8 | 0.00 | 0.00 | 0.00 | 68 | 1014.5 |
| 20260507003003 | 40 | 213 | 2.6 | 8.7 | 0.00 | 0.00 | 0.00 | 67 | 1014.5 |
| 20260507002502 | 40 | 216 | 2.6 | 13.0 | 0.00 | 0.00 | 0.00 | 67 | 1014.5 |
| 20260507001502 | 40 | 211 | 2.6 | 6.1 | 0.00 | 0.00 | 0.00 | 67 | 1014.5 |
| 20260507001003 | 39 | 202 | 3.5 | 7.0 | 0.00 | 0.00 | 0.00 | 67 | 1014.4 |
| 20260507000002 | 39 | 198 | 3.5 | 10.4 | 0.00 | 0.00 | 0.00 | 67 | 1014.4 |
| 20260506235503 | 39 | 199 | 3.5 | 9.6 | 0.00 | 0.00 | 0.00 | 67 | 1014.3 |
| 20260506235003 | 40 | 213 | 3.5 | 9.6 | 0.00 | 0.00 | 0.00 | 67 | 1014.3 |
| 20260506234504 | 40 | 211 | 3.5 | 11.3 | 0.00 | 0.00 | 0.00 | 67 | 1014.3 |
| 20260506234003 | 39 | 201 | 2.6 | 7.0 | 0.00 | 0.00 | 0.00 | 68 | 1014.3 |
| 20260506233003 | 40 | 199 | 2.6 | 6.1 | 0.00 | 0.00 | 0.00 | 67 | 1014.2 |
| 20260506232002 | 39 | 220 | 4.3 | 10.4 | 0.00 | 0.00 | 0.00 | 68 | 1014.1 |
| 20260506231503 | 39 | 212 | 3.5 | 7.0 | 0.00 | 0.00 | 0.00 | 69 | 1014.1 |
| 20260506231003 | 39 | 215 | 2.6 | 8.7 | 0.00 | 0.00 | 0.00 | 68 | 1014.1 |
| 20260506230503 | 40 | 213 | 4.3 | 8.7 | 0.00 | 0.00 | 0.00 | 67 | 1014.1 |
| 20260506230003 | 40 | 214 | 2.6 | 7.8 | 0.00 | 0.00 | 0.00 | 67 | 1014.1 |
| 20260506225502 | 40 | 211 | 3.5 | 9.6 | 0.00 | 0.00 | 0.00 | 66 | 1014.0 |
| 20260506225002 | 40 | 235 | 2.6 | 7.0 | 0.00 | 0.00 | 0.00 | 67 | 1014.0 |
| 20260506224503 | 40 | 229 | 3.5 | 9.6 | 0.00 | 0.00 | 0.00 | 68 | 1013.9 |
| 20260506224002 | 40 | 200 | 3.5 | 7.8 | 0.00 | 0.00 | 0.00 | 66 | 1013.9 |
| 20260506223502 | 40 | 213 | 3.5 | 9.6 | 0.00 | 0.00 | 0.00 | 66 | 1013.9 |
| 20260506223003 | 40 | 202 | 2.6 | 7.8 | 0.00 | 0.00 | 0.00 | 67 | 1013.8 |
| 20260506222503 | 40 | 216 | 3.5 | 7.8 | 0.00 | 0.00 | 0.00 | 67 | 1013.7 |
| 20260506222002 | 40 | 204 | 1.7 | 9.6 | 0.00 | 0.00 | 0.00 | 66 | 1013.7 |
| 20260506221502 | 40 | 232 | 2.6 | 8.7 | 0.00 | 0.00 | 0.00 | 67 | 1013.7 |
| 20260506220502 | 40 | 225 | 2.6 | 7.0 | 0.00 | 0.00 | 0.00 | 68 | 1013.7 |
| 20260506220002 | 39 | 208 | 2.6 | 8.7 | 0.00 | 0.00 | 0.00 | 69 | 1013.7 |
| 20260506215502 | 39 | 229 | 1.7 | 6.1 | 0.00 | 0.00 | 0.00 | 67 | 1013.7 |
| 20260506215003 | 40 | 228 | 1.7 | 5.2 | 0.00 | 0.00 | 0.00 | 67 | 1013.7 |
| 20260506214503 | 40 | 234 | 1.7 | 7.8 | 0.00 | 0.00 | 0.00 | 68 | 1013.6 |
| 20260506214002 | 40 | 216 | 2.6 | 7.8 | 0.00 | 0.00 | 0.00 | 68 | 1013.7 |
| 20260506212503 | 42 | 213 | 3.5 | 9.6 | 0.00 | 0.00 | 0.00 | 64 | 1013.5 |
| 20260506212003 | 42 | 237 | 3.5 | 9.6 | 0.00 | 0.00 | 0.00 | 65 | 1013.4 |
| 20260506211503 | 42 | 214 | 2.6 | 8.7 | 0.00 | 0.00 | 0.00 | 64 | 1013.3 |
| 20260506211003 | 42 | 234 | 2.6 | 7.8 | 0.00 | 0.00 | 0.00 | 63 | 1013.3 |
| 20260506210502 | 42 | 224 | 1.7 | 7.8 | 0.00 | 0.00 | 0.00 | 65 | 1013.3 |
| 20260506210002 | 42 | 239 | 1.7 | 7.0 | 0.00 | 0.00 | 0.00 | 65 | 1013.3 |
| 20260506205502 | 41 | 189 | 0.9 | 5.2 | 0.00 | 0.00 | 0.00 | 67 | 1013.2 |
| 20260506204503 | 39 | 190 | 2.6 | 4.3 | 0.00 | 0.00 | 0.00 | 67 | 1013.3 |
| 20260506204003 | 39 | 218 | 1.7 | 5.2 | 0.00 | 0.00 | 0.00 | 71 | 1013.2 |
| 20260506203502 | 38 | 211 | 1.7 | 6.1 | 0.00 | 0.00 | 0.00 | 71 | 1013.2 |
| 20260506203002 | 38 | 210 | 1.7 | 6.1 | 0.00 | 0.00 | 0.00 | 70 | 1013.2 |
| 20260506202502 | 39 | 190 | 1.7 | 5.2 | 0.00 | 0.00 | 0.00 | 69 | 1013.2 |
| 20260506202003 | 39 | 214 | 1.7 | 6.1 | 0.00 | 0.00 | 0.00 | 68 | 1013.1 |
| 20260506201502 | 39 | 258 | 0.9 | 3.5 | 0.00 | 0.00 | 0.00 | 70 | 1013.0 |
| 20260506201002 | 38 | 228 | 1.7 | 5.2 | 0.00 | 0.00 | 0.00 | 70 | 1013.0 |
| 20260506200003 | 38 | 220 | 1.7 | 5.2 | 0.00 | 0.00 | 0.00 | 70 | 1013.0 |
| 20260506195503 | 38 | 259 | 1.7 | 6.1 | 0.00 | 0.00 | 0.00 | 70 | 1012.9 |
| 20260506195003 | 38 | 283 | 0.9 | 3.5 | 0.00 | 0.00 | 0.00 | 71 | 1012.8 |
| 20260506194503 | 38 | 233 | 1.7 | 3.5 | 0.00 | 0.00 | 0.00 | 71 | 1012.9 |
| 20260506193502 | 38 | 269 | 1.7 | 4.3 | 0.00 | 0.00 | 0.00 | 71 | 1012.8 |
| 20260506193002 | 38 | 248 | 0.9 | 3.5 | 0.00 | 0.00 | 0.00 | 70 | 1012.8 |
| 20260506192502 | 38 | 267 | 1.7 | 6.1 | 0.00 | 0.00 | 0.00 | 71 | 1012.8 |
| 20260506192003 | 38 | 228 | 1.7 | 4.3 | 0.00 | 0.00 | 0.00 | 70 | 1012.7 |
| 20260506191503 | 38 | 212 | 1.7 | 4.3 | 0.00 | 0.00 | 0.00 | 71 | 1012.7 |
| 20260506191002 | 38 | 279 | 1.7 | 4.3 | 0.00 | 0.00 | 0.00 | 72 | 1012.8 |
| 20260506190503 | 38 | 279 | 0.9 | 1.7 | 0.00 | 0.00 | 0.00 | 71 | 1012.7 |
| 20260506185502 | 38 | 285 | 0.9 | 2.6 | 0.00 | 0.00 | 0.00 | 73 | 1012.7 |
| 20260506185002 | 38 | 284 | 0.9 | 1.7 | 0.00 | 0.00 | 0.00 | 73 | 1012.7 |
| 20260506184503 | 37 | 277 | 0.9 | 3.5 | 0.00 | 0.00 | 0.00 | 74 | 1012.6 |
| 20260506183503 | 36 | 255 | 0.9 | 0.9 | 0.00 | 0.00 | 0.00 | 75 | 1012.6 |
| 20260506183003 | 36 | 255 | 0.9 | 3.5 | 0.00 | 0.00 | 0.00 | 76 | 1012.6 |
| 20260506182002 | 36 | 261 | 0.9 | 2.6 | 0.00 | 0.00 | 0.00 | 78 | 1012.6 |
| 20260506181502 | 36 | 252 | 0.9 | 5.2 | 0.00 | 0.00 | 0.00 | 78 | 1012.5 |
| 20260506181002 | 36 | 246 | 0.9 | 2.6 | 0.00 | 0.00 | 0.00 | 77 | 1012.5 |
| 20260506180502 | 36 | 188 | 0.9 | 4.3 | 0.00 | 0.00 | 0.00 | 77 | 1012.4 |
| 20260506175502 | 36 | 172 | 0.9 | 3.5 | 0.00 | 0.00 | 0.00 | 79 | 1012.4 |
| 20260506174002 | 35 | 162 | 0.0 | 0.0 | 0.00 | 0.00 | 0.00 | 80 | 1012.3 |
| 20260506173003 | 34 | 162 | 0.0 | 0.0 | 0.00 | 0.00 | 0.00 | 81 | 1012.2 |
| 20260506172503 | 34 | 162 | 0.0 | 0.0 | 0.00 | 0.00 | 0.00 | 82 | 1012.2 |
| 20260506172003 | 34 | 162 | 0.0 | 0.0 | 0.00 | 0.00 | 0.00 | 83 | 1012.2 |
| 20260506171502 | 34 | 162 | 0.0 | 0.0 | 0.00 | 0.00 | 0.00 | 84 | 1012.2 |
| 20260506171003 | 34 | 162 | 0.0 | 0.0 | 0.00 | 0.00 | 0.00 | 84 | 1012.2 |
| 20260506170502 | 34 | 162 | 0.0 | 0.0 | 0.00 | 0.00 | 0.00 | 85 | 1012.3 |
| 20260506170003 | 33 | 162 | 0.0 | 0.0 | 0.00 | 0.00 | 0.00 | 86 | 1012.2 |
| 20260506165503 | 33 | 162 | 0.0 | 0.0 | 0.00 | 0.00 | 0.00 | 88 | 1012.1 |
| 20260506165003 | 33 | 162 | 0.0 | 0.0 | 0.00 | 0.00 | 0.00 | 88 | 1012.1 |
| 20260506164503 | 33 | 162 | 0.0 | 0.0 | 0.00 | 0.00 | 0.00 | 88 | 1012.1 |
| 20260506164002 | 33 | 162 | 0.0 | 0.0 | 0.00 | 0.00 | 0.00 | 88 | 1012.0 |
| 20260506163502 | 32 | 162 | 0.0 | 0.0 | 0.00 | 0.00 | 0.00 | 89 | 1012.0 |
| 20260506163002 | 32 | 162 | 0.0 | 0.0 | 0.00 | 0.00 | 0.00 | 89 | 1012.0 |
| 20260506162502 | 32 | 162 | 0.0 | 0.0 | 0.00 | 0.00 | 0.00 | 89 | 1012.0 |
| 20260506162003 | 32 | 162 | 0.0 | 0.0 | 0.00 | 0.00 | 0.00 | 88 | 1012.0 |
| 20260506161502 | 32 | 162 | 0.0 | 0.0 | 0.00 | 0.00 | 0.00 | 88 | 1012.0 |
| 20260506160503 | 32 | 162 | 0.9 | 3.5 | 0.00 | 0.00 | 0.00 | 88 | 1011.9 |
| 20260506160003 | 32 | 162 | 0.9 | 4.3 | 0.00 | 0.00 | 0.00 | 89 | 1011.9 |
| 20260506155503 | 32 | 163 | 0.9 | 3.5 | 0.00 | 0.00 | 0.00 | 90 | 1011.9 |
| 20260506155004 | 31 | 161 | 0.9 | 4.3 | 0.00 | 0.00 | 0.00 | 90 | 1011.9 |
| 20260506154502 | 31 | 158 | 0.9 | 0.9 | 0.00 | 0.00 | 0.00 | 90 | 1011.8 |
| 20260506154002 | 31 | 158 | 0.9 | 1.7 | 0.00 | 0.00 | 0.00 | 90 | 1011.8 |
| 20260506153505 | 31 | 159 | 0.9 | 1.7 | 0.00 | 0.00 | 0.00 | 90 | 1011.8 |
| 20260506153002 | 31 | 161 | 0.0 | 0.0 | 0.00 | 0.00 | 0.00 | 91 | 1011.8 |
| 20260506152502 | 30 | 161 | 0.0 | 0.0 | 0.00 | 0.00 | 0.00 | 91 | 1011.8 |
| 20260506152002 | 30 | 161 | 0.0 | 1.7 | 0.00 | 0.00 | 0.00 | 91 | 1011.8 |
| 20260506151502 | 30 | 164 | 0.9 | 3.5 | 0.00 | 0.00 | 0.00 | 91 | 1011.8 |
| 20260506151003 | 30 | 165 | 0.9 | 3.5 | 0.00 | 0.00 | 0.00 | 91 | 1011.8 |
| 20260506150503 | 30 | 166 | 1.7 | 5.2 | 0.00 | 0.00 | 0.00 | 91 | 1011.7 |
| 20260506150002 | 30 | 171 | 0.9 | 1.7 | 0.00 | 0.00 | 0.00 | 91 | 1011.7 |
| 20260506145502 | 30 | 172 | 0.9 | 4.3 | 0.00 | 0.00 | 0.00 | 91 | 1011.7 |
| 20260506145002 | 30 | 173 | 0.9 | 1.7 | 0.00 | 0.00 | 0.00 | 91 | 1011.8 |
| 20260506144502 | 30 | 173 | 0.9 | 1.7 | 0.00 | 0.00 | 0.00 | 91 | 1011.7 |
| 20260506144002 | 30 | 173 | 0.9 | 2.6 | 0.00 | 0.00 | 0.00 | 91 | 1011.7 |
| 20260506143502 | 30 | 180 | 1.7 | 3.5 | 0.00 | 0.00 | 0.00 | 91 | 1011.7 |
| 20260506143002 | 30 | 158 | 2.6 | 4.3 | 0.00 | 0.00 | 0.00 | 90 | 1011.7 |
| 20260506142502 | 30 | 129 | 0.9 | 2.6 | 0.00 | 0.00 | 0.00 | 90 | 1011.7 |
| 20260506142003 | 30 | 127 | 0.9 | 0.9 | 0.00 | 0.00 | 0.00 | 90 | 1011.7 |
| 20260506141503 | 30 | 127 | 0.0 | 0.0 | 0.00 | 0.00 | 0.00 | 89 | 1011.8 |
| 20260506141003 | 30 | 127 | 0.0 | 0.0 | 0.00 | 0.00 | 0.00 | 89 | 1011.8 |
| 20260506140502 | 30 | 127 | 0.9 | 1.7 | 0.00 | 0.00 | 0.00 | 89 | 1011.7 |
| 20260506140002 | 30 | 127 | 0.0 | 0.9 | 0.00 | 0.00 | 0.00 | 88 | 1011.7 |
| 20260506135503 | 30 | 127 | 0.9 | 2.6 | 0.00 | 0.00 | 0.00 | 88 | 1011.8 |
| 20260506135003 | 30 | 127 | 1.7 | 2.6 | 0.00 | 0.00 | 0.00 | 87 | 1011.8 |
| 20260506134002 | 30 | 126 | 0.9 | 1.7 | 0.00 | 0.00 | 0.00 | 87 | 1011.7 |
| 20260506133502 | 30 | 126 | 0.9 | 0.9 | 0.00 | 0.00 | 0.00 | 86 | 1011.7 |
| 20260506133002 | 30 | 126 | 0.9 | 1.7 | 0.00 | 0.00 | 0.00 | 86 | 1011.7 |
| 20260506132502 | 30 | 111 | 0.9 | 2.6 | 0.00 | 0.00 | 0.00 | 86 | 1011.7 |
| 20260506132003 | 30 | 107 | 0.0 | 0.0 | 0.00 | 0.00 | 0.00 | 86 | 1011.6 |
| 20260506131502 | 30 | 107 | 0.0 | 0.0 | 0.00 | 0.00 | 0.00 | 85 | 1011.6 |
| 20260506130003 | 30 | 107 | 0.0 | 0.0 | 0.00 | 0.00 | 0.00 | 84 | 1011.7 |
| 20260506125502 | 30 | 107 | 0.0 | 0.0 | 0.00 | 0.00 | 0.00 | 84 | 1011.6 |
| 20260506124502 | 30 | 107 | 0.0 | 0.0 | 0.00 | 0.00 | 0.00 | 82 | 1011.6 |
| 20260506123503 | 31 | 107 | 0.0 | 0.0 | 0.00 | 0.00 | 0.00 | 82 | 1011.5 |
| 20260506123002 | 31 | 107 | 0.0 | 0.0 | 0.00 | 0.00 | 0.00 | 82 | 1011.5 |
| 20260506122502 | 31 | 107 | 0.0 | 0.0 | 0.00 | 0.00 | 0.00 | 81 | 1011.5 |
| 20260506121503 | 31 | 107 | 0.0 | 0.0 | 0.00 | 0.00 | 0.00 | 81 | 1011.4 |
| 20260506120503 | 31 | 107 | 0.0 | 0.0 | 0.00 | 0.00 | 0.00 | 81 | 1011.4 |
| 20260506120003 | 31 | 107 | 0.0 | 0.0 | 0.00 | 0.00 | 0.00 | 80 | 1011.4 |
| 20260506115503 | 31 | 107 | 0.0 | 0.0 | 0.00 | 0.00 | 0.00 | 81 | 1011.3 |
| 20260506115002 | 31 | 107 | 0.0 | 0.0 | 0.00 | 0.00 | 0.00 | 80 | 1011.3 |
| 20260506114503 | 31 | 107 | 0.0 | 0.0 | 0.00 | 0.00 | 0.00 | 80 | 1011.3 |
| 20260506114003 | 31 | 107 | 0.9 | 0.9 | 0.00 | 0.00 | 0.00 | 80 | 1011.3 |
| 20260506113503 | 31 | 107 | 0.0 | 2.6 | 0.00 | 0.00 | 0.00 | 80 | 1011.3 |
| 20260506113002 | 31 | 103 | 0.9 | 1.7 | 0.00 | 0.00 | 0.00 | 80 | 1011.2 |
| 20260506112503 | 31 | 103 | 0.0 | 0.0 | 0.00 | 0.00 | 0.00 | 81 | 1011.3 |
| 20260506111502 | 31 | 103 | 0.0 | 0.0 | 0.00 | 0.00 | 0.00 | 82 | 1011.2 |
| 20260506111003 | 31 | 103 | 0.0 | 0.0 | 0.00 | 0.00 | 0.00 | 82 | 1011.2 |
| 20260506110502 | 31 | 103 | 0.0 | 0.0 | 0.00 | 0.00 | 0.00 | 82 | 1011.2 |
| 20260506110003 | 31 | 103 | 0.0 | 0.0 | 0.00 | 0.00 | 0.00 | 81 | 1011.1 |
| 20260506105503 | 31 | 103 | 0.0 | 0.0 | 0.00 | 0.00 | 0.00 | 81 | 1011.1 |
| 20260506105003 | 31 | 103 | 0.9 | 2.6 | 0.00 | 0.00 | 0.00 | 81 | 1011.1 |
| 20260506104503 | 31 | 110 | 0.9 | 3.5 | 0.00 | 0.00 | 0.00 | 81 | 1011.1 |
| 20260506104003 | 31 | 158 | 0.0 | 0.0 | 0.00 | 0.00 | 0.00 | 81 | 1011.1 |
| 20260506103502 | 31 | 158 | 0.0 | 0.0 | 0.00 | 0.00 | 0.00 | 82 | 1011.1 |
| 20260506103002 | 31 | 158 | 0.9 | 0.9 | 0.00 | 0.00 | 0.00 | 81 | 1011.1 |
| 20260506102502 | 31 | 158 | 0.9 | 0.9 | 0.00 | 0.00 | 0.00 | 81 | 1011.1 |
| 20260506102002 | 31 | 158 | 0.9 | 1.7 | 0.00 | 0.00 | 0.00 | 82 | 1011.0 |
| 20260506101503 | 31 | 159 | 0.9 | 0.9 | 0.00 | 0.00 | 0.00 | 82 | 1011.0 |
| 20260506100502 | 31 | 160 | 0.9 | 0.9 | 0.00 | 0.00 | 0.00 | 82 | 1011.0 |
| 20260506100002 | 31 | 160 | 0.0 | 3.5 | 0.00 | 0.00 | 0.00 | 82 | 1011.0 |
| 20260506095502 | 31 | 166 | 0.9 | 2.6 | 0.00 | 0.00 | 0.00 | 82 | 1010.9 |
| 20260506095002 | 30 | 167 | 0.9 | 3.5 | 0.00 | 0.00 | 0.00 | 82 | 1011.0 |
| 20260506094502 | 30 | 168 | 1.7 | 3.5 | 0.00 | 0.00 | 0.00 | 82 | 1011.0 |
| 20260506094003 | 30 | 171 | 0.0 | 0.0 | 0.00 | 0.00 | 0.00 | 82 | 1011.0 |
| 20260506093503 | 30 | 171 | 0.0 | 0.0 | 0.00 | 0.00 | 0.00 | 82 | 1011.0 |
| 20260506093002 | 30 | 171 | 0.9 | 0.9 | 0.00 | 0.00 | 0.00 | 82 | 1010.9 |
| 20260506092503 | 30 | 171 | 0.9 | 3.5 | 0.00 | 0.00 | 0.00 | 83 | 1010.9 |
| 20260506092002 | 30 | 171 | 0.9 | 1.7 | 0.00 | 0.00 | 0.00 | 82 | 1010.9 |
| 20260506091502 | 30 | 171 | 0.0 | 0.0 | 0.00 | 0.00 | 0.00 | 82 | 1010.8 |
| 20260506091003 | 31 | 171 | 0.0 | 0.0 | 0.00 | 0.00 | 0.00 | 82 | 1010.7 |
| 20260506090503 | 31 | 171 | 0.0 | 0.0 | 0.00 | 0.00 | 0.00 | 82 | 1010.7 |
| 20260506090003 | 31 | 171 | 0.0 | 0.0 | 0.00 | 0.00 | 0.00 | 80 | 1010.7 |
| 20260506085003 | 31 | 171 | 0.0 | 0.0 | 0.00 | 0.00 | 0.00 | 80 | 1010.8 |
| 20260506084503 | 31 | 171 | 0.0 | 0.0 | 0.00 | 0.00 | 0.00 | 80 | 1010.7 |
| 20260506084002 | 31 | 171 | 0.0 | 0.0 | 0.00 | 0.00 | 0.00 | 80 | 1010.7 |
| 20260506083502 | 31 | 171 | 0.9 | 3.5 | 0.00 | 0.00 | 0.00 | 80 | 1010.6 |
| 20260506083003 | 31 | 188 | 0.9 | 4.3 | 0.00 | 0.00 | 0.00 | 80 | 1010.6 |
| 20260506082503 | 31 | 162 | 0.9 | 3.5 | 0.00 | 0.00 | 0.00 | 78 | 1010.5 |
| 20260506082003 | 32 | 169 | 1.7 | 7.0 | 0.00 | 0.00 | 0.00 | 78 | 1010.5 |
| 20260506081503 | 32 | 126 | 0.9 | 1.7 | 0.00 | 0.00 | 0.00 | 77 | 1010.5 |
| 20260506081002 | 32 | 119 | 0.0 | 0.0 | 0.00 | 0.00 | 0.00 | 77 | 1010.4 |
| 20260506080502 | 32 | 119 | 0.0 | 0.0 | 0.00 | 0.00 | 0.00 | 77 | 1010.4 |
| 20260506073502 | 33 | 154 | 0.9 | 4.3 | 0.00 | 0.00 | 0.00 | 77 | 1010.4 |
| 20260506072502 | 33 | 187 | 1.7 | 4.3 | 0.00 | 0.00 | 0.00 | 77 | 1010.4 |
| 20260506072002 | 33 | 193 | 1.7 | 8.7 | 0.00 | 0.00 | 0.00 | 77 | 1010.5 |
| 20260506071503 | 33 | 181 | 2.6 | 7.8 | 0.00 | 0.00 | 0.00 | 77 | 1010.5 |
| 20260506071002 | 33 | 174 | 1.7 | 6.1 | 0.00 | 0.00 | 0.00 | 77 | 1010.5 |
| 20260506070502 | 33 | 180 | 3.5 | 7.8 | 0.00 | 0.00 | 0.00 | 77 | 1010.4 |
| 20260506062502 | 33 | 175 | 3.5 | 9.6 | 0.00 | 0.00 | 0.00 | 76 | 1010.0 |
| 20260506062003 | 33 | 154 | 1.7 | 5.2 | 0.00 | 0.00 | 0.00 | 76 | 1009.9 |
| 20260506061503 | 33 | 158 | 2.6 | 5.2 | 0.00 | 0.00 | 0.00 | 76 | 1009.8 |
| 20260506061003 | 33 | 191 | 0.9 | 1.7 | 0.00 | 0.00 | 0.00 | 76 | 1009.8 |
| 20260506060503 | 34 | 192 | 0.9 | 1.7 | 0.00 | 0.00 | 0.00 | 76 | 1009.8 |